createdAt,value
2017-05-01T00:00:40.907Z,0
2017-05-01T00:01:51.135Z,0
2017-05-01T00:03:01.055Z,0
2017-05-01T00:04:10.994Z,0
2017-05-01T00:05:21.222Z,0
2017-05-01T00:06:31.635Z,0
2017-05-01T00:07:41.250Z,0
2017-05-01T00:08:51.199Z,0
2017-05-01T00:10:01.436Z,0
2017-05-01T00:11:11.068Z,0
2017-05-01T00:12:21.278Z,0
2017-05-01T00:13:31.219Z,0
2017-05-01T00:14:41.131Z,0
2017-05-01T00:15:51.369Z,0
2017-05-01T00:17:01.610Z,0
2017-05-01T00:18:11.944Z,0
2017-05-01T00:19:21.556Z,0
2017-05-01T00:20:31.783Z,0
2017-05-01T00:21:42.028Z,0
2017-05-01T00:22:52.253Z,0
2017-05-01T00:24:02.422Z,0
2017-05-01T00:25:12.345Z,0
2017-05-01T00:26:21.970Z,0
2017-05-01T00:27:32.215Z,0
2017-05-01T00:28:42.454Z,0
2017-05-01T00:29:52.063Z,0
2017-05-01T00:31:02.290Z,0
2017-05-01T00:32:12.207Z,0
2017-05-01T00:33:22.428Z,0
2017-05-01T00:34:32.044Z,0
2017-05-01T00:35:42.269Z,0
2017-05-01T00:36:52.180Z,0
2017-05-01T00:38:01.796Z,0
2017-05-01T00:39:11.730Z,0
2017-05-01T00:40:21.665Z,0
2017-05-01T00:41:32.194Z,0
2017-05-01T00:42:42.423Z,0
2017-05-01T00:43:52.352Z,0
2017-05-01T00:45:02.283Z,0
2017-05-01T00:46:12.187Z,0
2017-05-01T00:47:22.151Z,0
2017-05-01T00:48:31.763Z,0
2017-05-01T00:49:41.991Z,0
2017-05-01T00:50:51.603Z,0
2017-05-01T00:52:01.827Z,0
2017-05-01T00:53:12.348Z,0
2017-05-01T00:54:22.594Z,0
2017-05-01T00:55:32.827Z,0
2017-05-01T00:56:42.782Z,0
2017-05-01T00:57:52.714Z,0
2017-05-01T00:59:03.291Z,0
2017-05-01T01:00:13.504Z,0
2017-05-01T01:01:23.128Z,0
2017-05-01T01:02:33.353Z,0
2017-05-01T01:03:43.580Z,0
2017-05-01T01:04:54.114Z,0
2017-05-01T01:06:03.726Z,0
2017-05-01T01:07:13.648Z,0
2017-05-01T01:08:23.871Z,0
2017-05-01T01:09:33.787Z,0
2017-05-01T01:10:44.053Z,0
2017-05-01T01:11:53.677Z,0
2017-05-01T01:13:03.902Z,0
2017-05-01T01:14:14.129Z,0
2017-05-01T01:15:24.346Z,0
2017-05-01T01:16:34.412Z,0
2017-05-01T01:17:44.633Z,0
2017-05-01T01:18:53.948Z,0
2017-05-01T01:20:03.554Z,0
2017-05-01T01:21:12.569Z,0
2017-05-01T01:22:22.447Z,0
2017-05-01T01:23:32.674Z,0
2017-05-01T01:24:42.906Z,0
2017-05-01T01:25:52.831Z,0
2017-05-01T01:27:02.762Z,0
2017-05-01T01:28:13.263Z,0
2017-05-01T01:29:23.480Z,0
2017-05-01T01:30:32.789Z,0
2017-05-01T01:31:42.703Z,0
2017-05-01T01:32:52.620Z,0
2017-05-01T01:34:02.581Z,0
2017-05-01T01:35:12.805Z,0
2017-05-01T01:36:22.726Z,0
2017-05-01T01:37:32.953Z,0
2017-05-01T01:38:43.189Z,0
2017-05-01T01:39:53.654Z,0
2017-05-01T01:41:03.257Z,0
2017-05-01T01:42:13.166Z,0
2017-05-01T01:43:23.411Z,0
2017-05-01T01:44:33.635Z,0
2017-05-01T01:45:43.827Z,0
2017-05-01T01:46:53.448Z,0
2017-05-01T01:48:03.061Z,0
2017-05-01T01:49:13.288Z,0
2017-05-01T01:50:22.593Z,0
2017-05-01T01:51:32.813Z,0
2017-05-01T01:52:42.116Z,0
2017-05-01T01:53:52.347Z,0
2017-05-01T01:55:01.964Z,0
2017-05-01T01:56:12.185Z,0
2017-05-01T01:57:22.438Z,0
2017-05-01T01:58:32.354Z,0
2017-05-01T01:59:42.265Z,0
2017-05-01T02:00:52.180Z,0
2017-05-01T02:02:02.096Z,0
2017-05-01T02:03:12.268Z,0
2017-05-01T02:04:22.188Z,0
2017-05-01T02:05:32.415Z,0
2017-05-01T02:06:42.332Z,0
2017-05-01T02:07:52.560Z,0
2017-05-01T02:09:02.812Z,0
2017-05-01T02:10:12.416Z,0
2017-05-01T02:11:22.627Z,0
2017-05-01T02:12:32.550Z,0
2017-05-01T02:13:42.775Z,0
2017-05-01T02:14:52.784Z,0
2017-05-01T02:16:02.699Z,0
2017-05-01T02:17:12.295Z,0
2017-05-01T02:18:22.211Z,0
2017-05-01T02:19:32.138Z,0
2017-05-01T02:20:42.415Z,0
2017-05-01T02:21:52.627Z,0
2017-05-01T02:23:01.951Z,0
2017-05-01T02:24:11.566Z,0
2017-05-01T02:25:21.793Z,0
2017-05-01T02:26:31.562Z,0
2017-05-01T02:27:41.481Z,0
2017-05-01T02:28:51.407Z,0
2017-05-01T02:30:01.328Z,0
2017-05-01T02:31:10.940Z,0
2017-05-01T02:32:20.698Z,0
2017-05-01T02:33:30.912Z,0
2017-05-01T02:34:40.868Z,0
2017-05-01T02:35:50.801Z,0
2017-05-01T02:37:00.708Z,0
2017-05-01T02:38:10.877Z,0
2017-05-01T02:39:20.808Z,0
2017-05-01T02:40:31.025Z,0
2017-05-01T02:41:40.950Z,0
2017-05-01T02:42:51.173Z,0
2017-05-01T02:44:01.047Z,0
2017-05-01T02:45:11.269Z,0
2017-05-01T02:46:20.874Z,0
2017-05-01T02:47:31.086Z,0
2017-05-01T02:48:40.998Z,0
2017-05-01T02:49:50.771Z,0
2017-05-01T02:51:00.682Z,0
2017-05-01T02:52:10.295Z,0
2017-05-01T02:53:20.521Z,0
2017-05-01T02:54:30.754Z,0
2017-05-01T02:55:40.932Z,0
2017-05-01T02:56:50.852Z,0
2017-05-01T02:58:00.820Z,0
2017-05-01T02:59:11.043Z,0
2017-05-01T03:00:20.659Z,0
2017-05-01T03:01:30.508Z,0
2017-05-01T03:02:40.118Z,0
2017-05-01T03:03:49.741Z,0
2017-05-01T03:04:59.978Z,0
2017-05-01T03:06:09.585Z,0
2017-05-01T03:07:19.132Z,0
2017-05-01T03:08:29.347Z,0
2017-05-01T03:09:39.270Z,0
2017-05-01T03:10:49.180Z,0
2017-05-01T03:11:59.092Z,0
2017-05-01T03:13:08.547Z,0
2017-05-01T03:14:18.149Z,0
2017-05-01T03:15:28.372Z,0
2017-05-01T03:16:38.604Z,0
2017-05-01T03:17:48.519Z,0
2017-05-01T03:18:59.090Z,0
2017-05-01T03:20:09.010Z,0
2017-05-01T03:21:18.936Z,0
2017-05-01T03:22:28.853Z,0
2017-05-01T03:23:38.785Z,0
2017-05-01T03:24:48.784Z,0
2017-05-01T03:25:58.997Z,0
2017-05-01T03:27:08.300Z,0
2017-05-01T03:28:17.911Z,0
2017-05-01T03:29:27.828Z,0
2017-05-01T03:30:37.611Z,0
2017-05-01T03:31:47.537Z,0
2017-05-01T03:32:57.770Z,0
2017-05-01T03:34:07.675Z,0
2017-05-01T03:35:17.278Z,0
2017-05-01T03:36:27.355Z,0
2017-05-01T03:37:36.669Z,0
2017-05-01T03:38:46.971Z,0
2017-05-01T03:39:57.197Z,0
2017-05-01T03:41:07.128Z,0
2017-05-01T03:42:16.682Z,0
2017-05-01T03:43:26.929Z,0
2017-05-01T03:44:36.835Z,0
2017-05-01T03:45:46.439Z,0
2017-05-01T03:46:56.663Z,0
2017-05-01T03:48:06.313Z,0
2017-05-01T03:49:15.942Z,0
2017-05-01T03:50:26.195Z,0
2017-05-01T03:51:36.115Z,4
2017-05-01T03:52:46.340Z,4
2017-05-01T03:53:56.877Z,4
2017-05-01T03:55:06.800Z,4
2017-05-01T03:56:17.025Z,4
2017-05-01T03:57:27.259Z,4
2017-05-01T03:58:37.520Z,4
2017-05-01T03:59:47.282Z,8
2017-05-01T04:00:57.196Z,4
2017-05-01T04:02:07.419Z,8
2017-05-01T04:03:17.642Z,8
2017-05-01T04:04:27.869Z,12
2017-05-01T04:05:38.252Z,12
2017-05-01T04:06:48.165Z,12
2017-05-01T04:07:57.486Z,12
2017-05-01T04:09:07.706Z,12
2017-05-01T04:10:17.669Z,16
2017-05-01T04:11:28.145Z,16
2017-05-01T04:12:37.747Z,16
2017-05-01T04:13:47.984Z,16
2017-05-01T04:14:57.282Z,20
2017-05-01T04:16:07.491Z,20
2017-05-01T04:17:17.687Z,28
2017-05-01T04:18:27.914Z,28
2017-05-01T04:19:38.140Z,28
2017-05-01T04:20:47.752Z,28
2017-05-01T04:21:57.399Z,32
2017-05-01T04:23:07.790Z,36
2017-05-01T04:24:17.410Z,36
2017-05-01T04:25:27.019Z,40
2017-05-01T04:26:36.324Z,44
2017-05-01T04:27:45.634Z,52
2017-05-01T04:28:55.806Z,56
2017-05-01T04:30:05.730Z,64
2017-05-01T04:31:15.868Z,68
2017-05-01T04:32:25.797Z,68
2017-05-01T04:33:35.088Z,72
2017-05-01T04:34:45.350Z,76
2017-05-01T04:35:54.648Z,76
2017-05-01T04:37:04.897Z,80
2017-05-01T04:38:14.816Z,88
2017-05-01T04:39:24.735Z,88
2017-05-01T04:40:34.907Z,92
2017-05-01T04:41:45.127Z,100
2017-05-01T04:42:55.042Z,108
2017-05-01T04:44:04.963Z,116
2017-05-01T04:45:14.267Z,120
2017-05-01T04:46:24.553Z,128
2017-05-01T04:47:34.470Z,132
2017-05-01T04:48:44.086Z,136
2017-05-01T04:49:54.315Z,144
2017-05-01T04:51:04.541Z,148
2017-05-01T04:52:14.800Z,160
2017-05-01T04:53:24.715Z,164
2017-05-01T04:54:34.336Z,172
2017-05-01T04:55:44.566Z,176
2017-05-01T04:56:54.800Z,180
2017-05-01T04:58:05.326Z,180
2017-05-01T04:59:15.240Z,180
2017-05-01T05:00:25.145Z,180
2017-05-01T05:01:35.062Z,176
2017-05-01T05:02:45.297Z,180
2017-05-01T05:03:55.864Z,184
2017-05-01T05:05:05.472Z,188
2017-05-01T05:06:15.392Z,192
2017-05-01T05:07:25.004Z,200
2017-05-01T05:08:34.930Z,208
2017-05-01T05:09:44.995Z,220
2017-05-01T05:10:55.213Z,228
2017-05-01T05:12:05.438Z,232
2017-05-01T05:13:15.666Z,224
2017-05-01T05:14:25.280Z,216
2017-05-01T05:15:35.041Z,216
2017-05-01T05:16:44.958Z,216
2017-05-01T05:17:54.563Z,228
2017-05-01T05:19:04.781Z,236
2017-05-01T05:20:14.696Z,244
2017-05-01T05:21:24.762Z,248
2017-05-01T05:22:34.364Z,232
2017-05-01T05:23:43.980Z,204
2017-05-01T05:24:54.225Z,172
2017-05-01T05:26:03.844Z,156
2017-05-01T05:27:14.413Z,164
2017-05-01T05:28:24.649Z,172
2017-05-01T05:29:34.265Z,176
2017-05-01T05:30:43.858Z,172
2017-05-01T05:31:54.087Z,156
2017-05-01T05:33:04.620Z,148
2017-05-01T05:34:14.232Z,156
2017-05-01T05:35:24.136Z,184
2017-05-01T05:36:34.355Z,220
2017-05-01T05:37:44.576Z,244
2017-05-01T05:38:54.910Z,280
2017-05-01T05:40:04.826Z,340
2017-05-01T05:41:14.765Z,416
2017-05-01T05:42:24.693Z,476
2017-05-01T05:43:34.626Z,512
2017-05-01T05:44:45.204Z,540
2017-05-01T05:45:54.823Z,572
2017-05-01T05:47:04.434Z,612
2017-05-01T05:48:14.366Z,640
2017-05-01T05:49:24.293Z,652
2017-05-01T05:50:34.561Z,628
2017-05-01T05:51:44.475Z,540
2017-05-01T05:52:54.693Z,524
2017-05-01T05:54:04.610Z,472
2017-05-01T05:55:14.528Z,440
2017-05-01T05:56:25.104Z,428
2017-05-01T05:57:35.357Z,420
2017-05-01T05:58:44.993Z,424
2017-05-01T05:59:54.907Z,452
2017-05-01T06:01:04.509Z,456
2017-05-01T06:02:14.051Z,480
2017-05-01T06:03:24.291Z,532
2017-05-01T06:04:33.907Z,588
2017-05-01T06:05:43.503Z,564
2017-05-01T06:06:53.725Z,472
2017-05-01T06:08:03.984Z,424
2017-05-01T06:09:13.910Z,420
2017-05-01T06:10:24.131Z,420
2017-05-01T06:11:34.370Z,408
2017-05-01T06:12:44.625Z,380
2017-05-01T06:13:55.017Z,368
2017-05-01T06:15:04.928Z,368
2017-05-01T06:16:14.525Z,352
2017-05-01T06:17:24.820Z,324
2017-05-01T06:18:34.454Z,300
2017-05-01T06:19:44.007Z,292
2017-05-01T06:20:54.231Z,296
2017-05-01T06:22:03.841Z,308
2017-05-01T06:23:13.780Z,320
2017-05-01T06:24:23.713Z,336
2017-05-01T06:25:34.041Z,356
2017-05-01T06:26:43.656Z,368
2017-05-01T06:27:54.278Z,384
2017-05-01T06:29:04.513Z,376
2017-05-01T06:30:14.122Z,376
2017-05-01T06:31:24.234Z,372
2017-05-01T06:32:34.180Z,376
2017-05-01T06:33:44.408Z,376
2017-05-01T06:34:53.703Z,388
2017-05-01T06:36:03.615Z,400
2017-05-01T06:37:12.952Z,392
2017-05-01T06:38:23.168Z,392
2017-05-01T06:39:33.405Z,412
2017-05-01T06:40:43.343Z,440
2017-05-01T06:41:53.566Z,456
2017-05-01T06:43:03.511Z,452
2017-05-01T06:44:13.721Z,444
2017-05-01T06:45:23.330Z,444
2017-05-01T06:46:33.554Z,472
2017-05-01T06:47:43.144Z,500
2017-05-01T06:48:53.170Z,512
2017-05-01T06:50:03.394Z,516
2017-05-01T06:51:12.676Z,512
2017-05-01T06:52:22.579Z,508
2017-05-01T06:53:32.555Z,504
2017-05-01T06:54:42.614Z,480
2017-05-01T06:55:51.915Z,440
2017-05-01T06:57:01.833Z,408
2017-05-01T06:58:12.055Z,388
2017-05-01T06:59:21.657Z,388
2017-05-01T07:00:32.281Z,392
2017-05-01T07:01:42.511Z,388
2017-05-01T07:02:52.738Z,376
2017-05-01T07:04:03.020Z,368
2017-05-01T07:05:12.924Z,364
2017-05-01T07:06:23.219Z,376
2017-05-01T07:07:33.230Z,400
2017-05-01T07:08:43.548Z,416
2017-05-01T07:09:53.940Z,436
2017-05-01T07:11:04.247Z,468
2017-05-01T07:12:14.856Z,504
2017-05-01T07:13:24.904Z,536
2017-05-01T07:14:34.817Z,552
2017-05-01T07:15:45.105Z,548
2017-05-01T07:16:55.147Z,544
2017-05-01T07:18:04.860Z,556
2017-05-01T07:19:14.165Z,560
2017-05-01T07:20:24.800Z,560
2017-05-01T07:21:34.893Z,564
2017-05-01T07:22:45.422Z,580
2017-05-01T07:23:55.643Z,596
2017-05-01T07:25:06.382Z,616
2017-05-01T07:26:16.958Z,644
2017-05-01T07:27:27.176Z,688
2017-05-01T07:28:37.797Z,756
2017-05-01T07:29:48.327Z,824
2017-05-01T07:30:58.775Z,856
2017-05-01T07:32:08.390Z,860
2017-05-01T07:33:18.308Z,836
2017-05-01T07:34:28.307Z,808
2017-05-01T07:35:38.072Z,824
2017-05-01T07:36:47.982Z,872
2017-05-01T07:37:58.197Z,912
2017-05-01T07:39:08.107Z,916
2017-05-01T07:40:18.046Z,928
2017-05-01T07:41:28.507Z,940
2017-05-01T07:42:38.904Z,956
2017-05-01T07:43:49.225Z,972
2017-05-01T07:44:58.622Z,984
2017-05-01T07:46:08.218Z,984
2017-05-01T07:47:18.730Z,976
2017-05-01T07:48:28.955Z,968
2017-05-01T07:49:38.552Z,948
2017-05-01T07:50:48.469Z,912
2017-05-01T07:51:58.374Z,892
2017-05-01T07:53:08.588Z,872
2017-05-01T07:54:18.794Z,856
2017-05-01T07:55:29.023Z,848
2017-05-01T07:56:39.234Z,852
2017-05-01T07:57:49.144Z,864
2017-05-01T07:58:59.715Z,876
2017-05-01T08:00:09.668Z,876
2017-05-01T08:01:19.592Z,876
2017-05-01T08:02:29.194Z,880
2017-05-01T08:03:38.787Z,892
2017-05-01T08:04:48.984Z,904
2017-05-01T08:05:58.886Z,928
2017-05-01T08:07:09.091Z,944
2017-05-01T08:08:18.997Z,952
2017-05-01T08:09:28.907Z,940
2017-05-01T08:10:38.979Z,928
2017-05-01T08:11:48.889Z,916
2017-05-01T08:12:58.481Z,908
2017-05-01T08:14:08.098Z,900
2017-05-01T08:15:17.687Z,880
2017-05-01T08:16:27.400Z,876
2017-05-01T08:17:37.625Z,880
2017-05-01T08:18:47.213Z,896
2017-05-01T08:19:56.810Z,912
2017-05-01T08:21:07.037Z,956
2017-05-01T08:22:17.103Z,1028
2017-05-01T08:23:27.343Z,1080
2017-05-01T08:24:37.558Z,1108
2017-05-01T08:25:47.834Z,1128
2017-05-01T08:26:57.460Z,1140
2017-05-01T08:28:08.447Z,1144
2017-05-01T08:29:18.659Z,1136
2017-05-01T08:30:28.261Z,1128
2017-05-01T08:31:38.180Z,1140
2017-05-01T08:32:48.090Z,1164
2017-05-01T08:33:58.258Z,1172
2017-05-01T08:35:08.199Z,1168
2017-05-01T08:36:17.856Z,1168
2017-05-01T08:37:28.078Z,1176
2017-05-01T08:38:37.993Z,1172
2017-05-01T08:39:48.212Z,1156
2017-05-01T08:40:58.428Z,1132
2017-05-01T08:42:08.631Z,1116
2017-05-01T08:43:17.941Z,1120
2017-05-01T08:44:27.280Z,1124
2017-05-01T08:45:37.212Z,1124
2017-05-01T08:46:47.119Z,1132
2017-05-01T08:47:57.336Z,1152
2017-05-01T08:49:06.937Z,1148
2017-05-01T08:50:16.885Z,1108
2017-05-01T08:51:26.790Z,1060
2017-05-01T08:52:36.993Z,1044
2017-05-01T08:53:46.903Z,1056
2017-05-01T08:54:56.531Z,1100
2017-05-01T08:56:06.691Z,1168
2017-05-01T08:57:16.051Z,1224
2017-05-01T08:58:26.284Z,1260
2017-05-01T08:59:36.879Z,1268
2017-05-01T09:00:46.791Z,1248
2017-05-01T09:01:57.492Z,1216
2017-05-01T09:03:06.884Z,1180
2017-05-01T09:04:16.507Z,1152
2017-05-01T09:05:26.421Z,1156
2017-05-01T09:06:36.620Z,1200
2017-05-01T09:07:46.982Z,1296
2017-05-01T09:08:57.553Z,1428
2017-05-01T09:10:07.489Z,1524
2017-05-01T09:11:17.167Z,1568
2017-05-01T09:12:27.392Z,1580
2017-05-01T09:13:37.360Z,1632
2017-05-01T09:14:47.541Z,1688
2017-05-01T09:15:57.764Z,1724
2017-05-01T09:17:07.925Z,1736
2017-05-01T09:18:17.962Z,1748
2017-05-01T09:19:28.042Z,1760
2017-05-01T09:20:37.638Z,1752
2017-05-01T09:21:47.548Z,1724
2017-05-01T09:22:57.463Z,1716
2017-05-01T09:24:07.074Z,1748
2017-05-01T09:25:16.779Z,1776
2017-05-01T09:26:26.999Z,1808
2017-05-01T09:27:36.912Z,1836
2017-05-01T09:28:46.550Z,1848
2017-05-01T09:29:56.832Z,1844
2017-05-01T09:31:07.018Z,1844
2017-05-01T09:32:16.631Z,1852
2017-05-01T09:33:26.904Z,1884
2017-05-01T09:34:36.834Z,1948
2017-05-01T09:35:47.070Z,2016
2017-05-01T09:36:57.796Z,2072
2017-05-01T09:38:08.606Z,2092
2017-05-01T09:39:19.567Z,2088
2017-05-01T09:40:30.945Z,2080
2017-05-01T09:41:41.266Z,2040
2017-05-01T09:42:51.480Z,1996
2017-05-01T09:44:02.435Z,1948
2017-05-01T09:45:12.780Z,1900
2017-05-01T09:46:23.441Z,1856
2017-05-01T09:47:33.464Z,1836
2017-05-01T09:48:44.141Z,1804
2017-05-01T09:49:54.622Z,1780
2017-05-01T09:51:04.901Z,1776
2017-05-01T09:52:15.498Z,1752
2017-05-01T09:53:26.168Z,1756
2017-05-01T09:54:36.481Z,1708
2017-05-01T09:55:46.420Z,1560
2017-05-01T09:56:57.155Z,1496
2017-05-01T09:58:07.568Z,1600
2017-05-01T09:59:18.901Z,1548
2017-05-01T10:00:31.260Z,1440
2017-05-01T10:01:41.960Z,1412
2017-05-01T10:02:53.639Z,1424
2017-05-01T10:04:03.576Z,1412
2017-05-01T10:05:13.194Z,1664
2017-05-01T10:06:22.969Z,1804
2017-05-01T10:07:32.291Z,1932
2017-05-01T10:08:41.886Z,2088
2017-05-01T10:09:51.493Z,2176
2017-05-01T10:11:01.725Z,2216
2017-05-01T10:12:11.898Z,2244
2017-05-01T10:13:21.856Z,2284
2017-05-01T10:14:31.470Z,2308
2017-05-01T10:15:41.679Z,2312
2017-05-01T10:16:51.608Z,2264
2017-05-01T10:18:01.658Z,2224
2017-05-01T10:19:11.255Z,2164
2017-05-01T10:20:20.553Z,2028
2017-05-01T10:21:30.490Z,1944
2017-05-01T10:22:40.458Z,1856
2017-05-01T10:23:51.034Z,1776
2017-05-01T10:25:01.244Z,1724
2017-05-01T10:26:11.180Z,1676
2017-05-01T10:27:21.127Z,1636
2017-05-01T10:28:31.362Z,1596
2017-05-01T10:29:41.958Z,1576
2017-05-01T10:30:51.567Z,1576
2017-05-01T10:32:01.511Z,1604
2017-05-01T10:33:11.757Z,1648
2017-05-01T10:34:21.696Z,1676
2017-05-01T10:35:31.040Z,1664
2017-05-01T10:36:40.660Z,1616
2017-05-01T10:37:50.933Z,1544
2017-05-01T10:39:00.574Z,1492
2017-05-01T10:40:09.890Z,1460
2017-05-01T10:41:19.671Z,1460
2017-05-01T10:42:29.610Z,1468
2017-05-01T10:43:39.223Z,1476
2017-05-01T10:44:49.466Z,1484
2017-05-01T10:45:59.104Z,1476
2017-05-01T10:47:09.679Z,1460
2017-05-01T10:48:19.303Z,1444
2017-05-01T10:49:29.536Z,1440
2017-05-01T10:50:39.262Z,1464
2017-05-01T10:51:48.894Z,1500
2017-05-01T10:52:59.341Z,1540
2017-05-01T10:54:09.257Z,1580
2017-05-01T10:55:19.477Z,1604
2017-05-01T10:56:29.695Z,1620
2017-05-01T10:57:39.602Z,1628
2017-05-01T10:58:50.195Z,1644
2017-05-01T11:00:00.123Z,1676
2017-05-01T11:01:10.035Z,1724
2017-05-01T11:02:19.944Z,1772
2017-05-01T11:03:30.186Z,1816
2017-05-01T11:04:40.299Z,1844
2017-05-01T11:05:50.231Z,1872
2017-05-01T11:07:00.178Z,1892
2017-05-01T11:08:10.447Z,1920
2017-05-01T11:09:20.397Z,1960
2017-05-01T11:10:30.338Z,2016
2017-05-01T11:11:40.264Z,2080
2017-05-01T11:12:49.917Z,2156
2017-05-01T11:14:00.158Z,2212
2017-05-01T11:15:11.195Z,2248
2017-05-01T11:16:20.964Z,2288
2017-05-01T11:17:30.919Z,2344
2017-05-01T11:18:40.844Z,2412
2017-05-01T11:19:50.765Z,2472
2017-05-01T11:21:00.715Z,2512
2017-05-01T11:22:10.719Z,2528
2017-05-01T11:23:20.357Z,2504
2017-05-01T11:24:29.997Z,2448
2017-05-01T11:25:39.926Z,2408
2017-05-01T11:26:50.174Z,2392
2017-05-01T11:27:59.932Z,2372
2017-05-01T11:29:09.845Z,2368
2017-05-01T11:30:19.823Z,2368
2017-05-01T11:31:29.735Z,2376
2017-05-01T11:32:39.685Z,2364
2017-05-01T11:33:50.015Z,2356
2017-05-01T11:34:59.620Z,2360
2017-05-01T11:36:09.884Z,2360
2017-05-01T11:37:19.789Z,2344
2017-05-01T11:38:30.037Z,2320
2017-05-01T11:39:40.205Z,2304
2017-05-01T11:40:50.449Z,2288
2017-05-01T11:42:00.759Z,2268
2017-05-01T11:43:10.361Z,2208
2017-05-01T11:44:20.281Z,2132
2017-05-01T11:45:30.799Z,2036
2017-05-01T11:46:40.726Z,1960
2017-05-01T11:47:50.664Z,1932
2017-05-01T11:49:00.296Z,1944
2017-05-01T11:50:10.556Z,1960
2017-05-01T11:51:20.724Z,1960
2017-05-01T11:52:30.641Z,1964
2017-05-01T11:53:39.961Z,1964
2017-05-01T11:54:50.194Z,1972
2017-05-01T11:56:00.108Z,1980
2017-05-01T11:57:10.275Z,1996
2017-05-01T11:58:20.193Z,2008
2017-05-01T11:59:30.111Z,1992
2017-05-01T12:00:39.724Z,1968
2017-05-01T12:01:49.338Z,1940
2017-05-01T12:02:59.357Z,1936
2017-05-01T12:04:09.291Z,1952
2017-05-01T12:05:19.493Z,1980
2017-05-01T12:06:29.091Z,2024
2017-05-01T12:07:38.707Z,2072
2017-05-01T12:08:49.035Z,2116
2017-05-01T12:09:58.663Z,2160
2017-05-01T12:11:07.871Z,2212
2017-05-01T12:12:18.100Z,2252
2017-05-01T12:13:27.711Z,2284
2017-05-01T12:14:37.881Z,2296
2017-05-01T12:15:47.783Z,2308
2017-05-01T12:16:57.685Z,2344
2017-05-01T12:18:07.601Z,2404
2017-05-01T12:19:17.534Z,2460
2017-05-01T12:20:27.592Z,2524
2017-05-01T12:21:37.495Z,2584
2017-05-01T12:22:47.429Z,2620
2017-05-01T12:23:57.673Z,2668
2017-05-01T12:25:06.673Z,2760
2017-05-01T12:26:16.724Z,2884
2017-05-01T12:27:26.328Z,2988
2017-05-01T12:28:36.551Z,3032
2017-05-01T12:29:46.160Z,3016
2017-05-01T12:30:55.773Z,2948
2017-05-01T12:32:05.547Z,2888
2017-05-01T12:33:15.143Z,2856
2017-05-01T12:34:25.062Z,2800
2017-05-01T12:35:34.971Z,2768
2017-05-01T12:36:43.976Z,2764
2017-05-01T12:37:54.500Z,2752
2017-05-01T12:39:03.794Z,2772
2017-05-01T12:40:13.130Z,2812
2017-05-01T12:41:22.745Z,2836
2017-05-01T12:42:32.371Z,2860
2017-05-01T12:43:42.284Z,2940
2017-05-01T12:44:51.897Z,2988
2017-05-01T12:46:01.500Z,3000
2017-05-01T12:47:11.101Z,3028
2017-05-01T12:48:21.023Z,2972
2017-05-01T12:49:31.391Z,2928
2017-05-01T12:50:41.615Z,2908
2017-05-01T12:51:51.529Z,2916
2017-05-01T12:53:01.810Z,2952
2017-05-01T12:54:11.426Z,2992
2017-05-01T12:55:21.422Z,2980
2017-05-01T12:56:31.329Z,2920
2017-05-01T12:57:40.929Z,2768
2017-05-01T12:58:50.844Z,2616
2017-05-01T13:00:01.064Z,2552
2017-05-01T13:01:11.438Z,2616
2017-05-01T13:02:20.733Z,2572
2017-05-01T13:03:30.638Z,2488
2017-05-01T13:04:41.256Z,2444
2017-05-01T13:05:51.616Z,2408
2017-05-01T13:07:02.127Z,2500
2017-05-01T13:08:12.342Z,2612
2017-05-01T13:09:22.251Z,2600
2017-05-01T13:10:31.856Z,2536
2017-05-01T13:11:41.446Z,2516
2017-05-01T13:12:51.973Z,2480
2017-05-01T13:14:03.709Z,2488
2017-05-01T13:15:13.924Z,2468
2017-05-01T13:16:23.835Z,2448
2017-05-01T13:17:33.743Z,2436
2017-05-01T13:18:44.597Z,2420
2017-05-01T13:19:55.145Z,2408
2017-05-01T13:21:05.737Z,2376
2017-05-01T13:22:15.912Z,2320
2017-05-01T13:23:26.052Z,2256
2017-05-01T13:24:37.225Z,2196
2017-05-01T13:25:48.195Z,2132
2017-05-01T13:26:59.910Z,2092
2017-05-01T13:28:09.539Z,2080
2017-05-01T13:29:19.310Z,2076
2017-05-01T13:30:30.013Z,2076
2017-05-01T13:31:40.008Z,2076
2017-05-01T13:32:49.614Z,2052
2017-05-01T13:33:59.918Z,2044
2017-05-01T13:35:09.005Z,2036
2017-05-01T13:36:19.250Z,2060
2017-05-01T13:37:29.222Z,2060
2017-05-01T13:38:39.445Z,2048
2017-05-01T13:39:49.138Z,2020
2017-05-01T13:40:58.801Z,1936
2017-05-01T13:42:09.749Z,1804
2017-05-01T13:43:19.659Z,1548
2017-05-01T13:44:29.963Z,1388
2017-05-01T13:45:39.583Z,1408
2017-05-01T13:46:49.883Z,1340
2017-05-01T13:47:59.924Z,1176
2017-05-01T13:49:09.541Z,1220
2017-05-01T13:50:19.519Z,1244
2017-05-01T13:51:29.427Z,1168
2017-05-01T13:52:39.393Z,1080
2017-05-01T13:53:49.854Z,1088
2017-05-01T13:55:00.078Z,996
2017-05-01T13:56:10.331Z,972
2017-05-01T13:57:20.338Z,972
2017-05-01T13:58:30.957Z,1148
2017-05-01T13:59:41.115Z,1188
2017-05-01T14:00:51.705Z,1180
2017-05-01T14:02:02.154Z,1160
2017-05-01T14:03:11.773Z,1124
2017-05-01T14:04:22.376Z,1088
2017-05-01T14:05:33.314Z,1044
2017-05-01T14:06:42.699Z,996
2017-05-01T14:07:52.319Z,956
2017-05-01T14:09:02.980Z,908
2017-05-01T14:10:12.975Z,876
2017-05-01T14:11:22.956Z,844
2017-05-01T14:12:32.954Z,804
2017-05-01T14:13:43.258Z,780
2017-05-01T14:14:52.932Z,760
2017-05-01T14:16:02.875Z,732
2017-05-01T14:17:13.510Z,696
2017-05-01T14:18:22.877Z,640
2017-05-01T14:19:33.203Z,612
2017-05-01T14:20:43.817Z,596
2017-05-01T14:21:54.421Z,564
2017-05-01T14:23:04.277Z,540
2017-05-01T14:24:14.439Z,536
2017-05-01T14:25:24.359Z,512
2017-05-01T14:26:34.668Z,580
2017-05-01T14:27:44.893Z,616
2017-05-01T14:28:55.218Z,636
2017-05-01T14:30:04.826Z,628
2017-05-01T14:31:13.894Z,608
2017-05-01T14:32:23.586Z,588
2017-05-01T14:33:33.253Z,600
2017-05-01T14:34:42.728Z,548
2017-05-01T14:35:52.939Z,532
2017-05-01T14:37:02.839Z,516
2017-05-01T14:38:12.754Z,496
2017-05-01T14:39:22.677Z,488
2017-05-01T14:40:32.917Z,496
2017-05-01T14:41:43.156Z,536
2017-05-01T14:42:53.473Z,608
2017-05-01T14:44:03.098Z,644
2017-05-01T14:45:13.003Z,620
2017-05-01T14:46:23.215Z,616
2017-05-01T14:47:33.117Z,628
2017-05-01T14:48:43.117Z,700
2017-05-01T14:49:53.030Z,752
2017-05-01T14:51:03.239Z,840
2017-05-01T14:52:13.479Z,944
2017-05-01T14:53:23.112Z,1080
2017-05-01T14:54:33.333Z,1188
2017-05-01T14:55:42.625Z,1276
2017-05-01T14:56:52.763Z,1332
2017-05-01T14:58:02.777Z,1340
2017-05-01T14:59:13.398Z,1332
2017-05-01T15:00:23.396Z,1324
2017-05-01T15:01:33.621Z,1328
2017-05-01T15:02:44.232Z,1348
2017-05-01T15:03:54.589Z,1368
2017-05-01T15:05:04.886Z,1404
2017-05-01T15:06:15.185Z,1444
2017-05-01T15:07:26.009Z,1492
2017-05-01T15:08:36.007Z,1536
2017-05-01T15:09:47.089Z,1572
2017-05-01T15:10:56.999Z,1584
2017-05-01T15:12:06.353Z,1596
2017-05-01T15:13:16.079Z,1592
2017-05-01T15:14:26.074Z,1592
2017-05-01T15:15:36.955Z,1576
2017-05-01T15:16:47.212Z,1540
2017-05-01T15:17:56.890Z,1488
2017-05-01T15:19:06.635Z,1436
2017-05-01T15:20:15.921Z,1380
2017-05-01T15:21:25.699Z,1328
2017-05-01T15:22:35.391Z,1268
2017-05-01T15:23:46.210Z,1212
2017-05-01T15:24:56.312Z,1180
2017-05-01T15:26:05.723Z,1160
2017-05-01T15:27:15.166Z,1136
2017-05-01T15:28:24.947Z,1100
2017-05-01T15:29:34.644Z,1048
2017-05-01T15:30:44.945Z,1016
2017-05-01T15:31:54.970Z,1020
2017-05-01T15:33:05.482Z,1016
2017-05-01T15:34:15.642Z,1008
2017-05-01T15:35:26.543Z,1028
2017-05-01T15:36:36.840Z,1028
2017-05-01T15:37:47.284Z,1028
2017-05-01T15:38:57.853Z,1036
2017-05-01T15:40:07.746Z,1040
2017-05-01T15:41:17.043Z,1044
2017-05-01T15:42:26.641Z,1036
2017-05-01T15:43:36.237Z,1000
2017-05-01T15:44:46.880Z,976
2017-05-01T15:45:56.562Z,968
2017-05-01T15:47:05.871Z,976
2017-05-01T15:48:15.169Z,956
2017-05-01T15:49:25.081Z,984
2017-05-01T15:50:35.256Z,1028
2017-05-01T15:51:44.869Z,1016
2017-05-01T15:52:55.079Z,996
2017-05-01T15:54:04.674Z,976
2017-05-01T15:55:14.879Z,928
2017-05-01T15:56:24.732Z,828
2017-05-01T15:57:34.947Z,732
2017-05-01T15:58:44.877Z,692
2017-05-01T15:59:55.096Z,704
2017-05-01T16:01:04.418Z,684
2017-05-01T16:02:14.063Z,664
2017-05-01T16:03:23.973Z,644
2017-05-01T16:04:33.890Z,672
2017-05-01T16:05:44.798Z,712
2017-05-01T16:06:54.670Z,724
2017-05-01T16:08:04.580Z,696